sensor_id;sensor_type;location;lat;lon;timestamp;temperature;humidity
14053;DHT22;7101;51.600;7.310;2023-07-31T00:02:01;15.70;99.90
14053;DHT22;7101;51.600;7.310;2023-07-31T00:04:28;15.60;99.90
14053;DHT22;7101;51.600;7.310;2023-07-31T00:06:55;15.60;99.90
14053;DHT22;7101;51.600;7.310;2023-07-31T00:09:23;15.60;99.90
14053;DHT22;7101;51.600;7.310;2023-07-31T00:11:50;15.60;99.90
14053;DHT22;7101;51.600;7.310;2023-07-31T00:14:17;15.50;99.90
14053;DHT22;7101;51.600;7.310;2023-07-31T00:16:44;15.60;99.90
14053;DHT22;7101;51.600;7.310;2023-07-31T00:19:11;15.60;99.90
14053;DHT22;7101;51.600;7.310;2023-07-31T00:21:38;15.60;99.90
14053;DHT22;7101;51.600;7.310;2023-07-31T00:24:05;15.60;99.90
14053;DHT22;7101;51.600;7.310;2023-07-31T00:26:33;15.70;99.90
14053;DHT22;7101;51.600;7.310;2023-07-31T00:29:01;15.60;99.90
14053;DHT22;7101;51.600;7.310;2023-07-31T00:31:30;15.70;99.90
14053;DHT22;7101;51.600;7.310;2023-07-31T00:33:56;15.70;99.90
14053;DHT22;7101;51.600;7.310;2023-07-31T00:36:23;15.80;99.90
14053;DHT22;7101;51.600;7.310;2023-07-31T00:38:50;15.70;99.90
14053;DHT22;7101;51.600;7.310;2023-07-31T00:41:17;15.80;99.90
14053;DHT22;7101;51.600;7.310;2023-07-31T00:43:46;15.80;99.90
14053;DHT22;7101;51.600;7.310;2023-07-31T00:46:13;15.80;99.90
14053;DHT22;7101;51.600;7.310;2023-07-31T00:48:40;15.90;99.90
14053;DHT22;7101;51.600;7.310;2023-07-31T00:51:07;15.80;99.90
14053;DHT22;7101;51.600;7.310;2023-07-31T00:53:36;15.90;99.90
14053;DHT22;7101;51.600;7.310;2023-07-31T00:56:04;15.90;99.90
14053;DHT22;7101;51.600;7.310;2023-07-31T00:58:31;16.00;99.90
14053;DHT22;7101;51.600;7.310;2023-07-31T01:01:01;16.00;99.90
14053;DHT22;7101;51.600;7.310;2023-07-31T01:03:28;16.10;99.90
14053;DHT22;7101;51.600;7.310;2023-07-31T01:06:07;16.10;99.90
14053;DHT22;7101;51.600;7.310;2023-07-31T01:08:42;16.20;99.90
14053;DHT22;7101;51.600;7.310;2023-07-31T01:11:16;16.20;99.90
14053;DHT22;7101;51.600;7.310;2023-07-31T01:13:45;16.20;99.90
14053;DHT22;7101;51.600;7.310;2023-07-31T01:16:13;16.20;99.90
14053;DHT22;7101;51.600;7.310;2023-07-31T01:18:40;16.20;99.90
14053;DHT22;7101;51.600;7.310;2023-07-31T01:21:30;16.20;99.90
14053;DHT22;7101;51.600;7.310;2023-07-31T01:24:30;16.20;99.90
14053;DHT22;7101;51.600;7.310;2023-07-31T01:27:08;16.20;99.90
14053;DHT22;7101;51.600;7.310;2023-07-31T01:29:47;16.20;99.90
14053;DHT22;7101;51.600;7.310;2023-07-31T01:32:18;16.20;99.90
14053;DHT22;7101;51.600;7.310;2023-07-31T01:34:45;16.10;99.90
14053;DHT22;7101;51.600;7.310;2023-07-31T01:37:13;16.20;99.90
14053;DHT22;7101;51.600;7.310;2023-07-31T01:39:41;16.20;99.90
14053;DHT22;7101;51.600;7.310;2023-07-31T01:42:09;16.20;99.90
14053;DHT22;7101;51.600;7.310;2023-07-31T01:44:36;16.20;99.90
14053;DHT22;7101;51.600;7.310;2023-07-31T01:47:04;16.20;99.90
14053;DHT22;7101;51.600;7.310;2023-07-31T01:49:31;16.20;99.90
14053;DHT22;7101;51.600;7.310;2023-07-31T01:51:58;16.20;99.90
14053;DHT22;7101;51.600;7.310;2023-07-31T01:54:25;16.20;99.90
14053;DHT22;7101;51.600;7.310;2023-07-31T01:56:52;16.20;99.90
14053;DHT22;7101;51.600;7.310;2023-07-31T01:59:20;16.20;99.90
14053;DHT22;7101;51.600;7.310;2023-07-31T02:01:47;16.20;99.90
14053;DHT22;7101;51.600;7.310;2023-07-31T02:04:14;16.20;99.90
14053;DHT22;7101;51.600;7.310;2023-07-31T02:06:41;16.10;99.90
14053;DHT22;7101;51.600;7.310;2023-07-31T02:09:09;16.10;99.90
14053;DHT22;7101;51.600;7.310;2023-07-31T02:11:35;16.10;99.90
14053;DHT22;7101;51.600;7.310;2023-07-31T02:14:03;16.10;99.90
14053;DHT22;7101;51.600;7.310;2023-07-31T02:16:31;16.10;99.90
14053;DHT22;7101;51.600;7.310;2023-07-31T02:18:58;16.10;99.90
14053;DHT22;7101;51.600;7.310;2023-07-31T02:21:24;16.10;99.90
14053;DHT22;7101;51.600;7.310;2023-07-31T02:23:52;16.10;99.90
14053;DHT22;7101;51.600;7.310;2023-07-31T02:26:18;16.10;99.90
14053;DHT22;7101;51.600;7.310;2023-07-31T02:28:46;16.10;99.90
14053;DHT22;7101;51.600;7.310;2023-07-31T02:31:12;16.10;99.90
14053;DHT22;7101;51.600;7.310;2023-07-31T02:33:41;16.10;99.90
14053;DHT22;7101;51.600;7.310;2023-07-31T02:36:09;16.10;99.90
14053;DHT22;7101;51.600;7.310;2023-07-31T02:38:36;16.10;99.90
14053;DHT22;7101;51.600;7.310;2023-07-31T02:41:02;16.10;99.90
14053;DHT22;7101;51.600;7.310;2023-07-31T02:43:29;16.10;99.90
14053;DHT22;7101;51.600;7.310;2023-07-31T02:45:56;16.00;99.90
14053;DHT22;7101;51.600;7.310;2023-07-31T02:48:23;16.10;99.90
14053;DHT22;7101;51.600;7.310;2023-07-31T02:50:53;16.00;99.90
14053;DHT22;7101;51.600;7.310;2023-07-31T02:53:20;16.00;99.90
14053;DHT22;7101;51.600;7.310;2023-07-31T02:55:51;16.00;99.90
14053;DHT22;7101;51.600;7.310;2023-07-31T02:58:18;16.00;99.90
14053;DHT22;7101;51.600;7.310;2023-07-31T03:00:45;16.00;99.90
14053;DHT22;7101;51.600;7.310;2023-07-31T03:03:12;16.00;99.90
14053;DHT22;7101;51.600;7.310;2023-07-31T03:05:39;16.00;99.90
14053;DHT22;7101;51.600;7.310;2023-07-31T03:08:07;16.00;99.90
14053;DHT22;7101;51.600;7.310;2023-07-31T03:10:34;16.10;99.90
14053;DHT22;7101;51.600;7.310;2023-07-31T03:13:01;16.10;99.90
14053;DHT22;7101;51.600;7.310;2023-07-31T03:15:28;16.10;99.90
14053;DHT22;7101;51.600;7.310;2023-07-31T03:17:55;16.10;99.90
14053;DHT22;7101;51.600;7.310;2023-07-31T03:20:22;16.10;99.90
14053;DHT22;7101;51.600;7.310;2023-07-31T03:22:49;16.10;99.90
14053;DHT22;7101;51.600;7.310;2023-07-31T03:25:18;16.10;99.90
14053;DHT22;7101;51.600;7.310;2023-07-31T03:27:44;16.10;99.90
14053;DHT22;7101;51.600;7.310;2023-07-31T03:30:11;16.20;99.90
14053;DHT22;7101;51.600;7.310;2023-07-31T03:32:38;16.10;99.90
14053;DHT22;7101;51.600;7.310;2023-07-31T03:35:06;16.10;99.90
14053;DHT22;7101;51.600;7.310;2023-07-31T03:37:32;16.10;99.90
14053;DHT22;7101;51.600;7.310;2023-07-31T03:39:59;16.10;99.90
14053;DHT22;7101;51.600;7.310;2023-07-31T03:42:28;16.20;99.90
14053;DHT22;7101;51.600;7.310;2023-07-31T03:44:54;16.20;99.90
14053;DHT22;7101;51.600;7.310;2023-07-31T03:47:23;16.20;99.90
14053;DHT22;7101;51.600;7.310;2023-07-31T03:49:50;16.20;99.90
14053;DHT22;7101;51.600;7.310;2023-07-31T03:52:18;16.20;99.90
14053;DHT22;7101;51.600;7.310;2023-07-31T03:54:45;16.20;99.90
14053;DHT22;7101;51.600;7.310;2023-07-31T03:57:12;16.20;99.90
14053;DHT22;7101;51.600;7.310;2023-07-31T03:59:41;16.20;99.90
14053;DHT22;7101;51.600;7.310;2023-07-31T04:02:07;16.20;99.90
14053;DHT22;7101;51.600;7.310;2023-07-31T04:04:36;16.30;99.90
14053;DHT22;7101;51.600;7.310;2023-07-31T04:07:03;16.30;99.90
14053;DHT22;7101;51.600;7.310;2023-07-31T04:09:30;16.30;99.90
14053;DHT22;7101;51.600;7.310;2023-07-31T04:11:56;16.30;99.90
14053;DHT22;7101;51.600;7.310;2023-07-31T04:14:23;16.40;99.90
14053;DHT22;7101;51.600;7.310;2023-07-31T04:16:52;16.40;99.90
14053;DHT22;7101;51.600;7.310;2023-07-31T04:19:19;16.40;99.90
14053;DHT22;7101;51.600;7.310;2023-07-31T04:21:46;16.40;99.90
14053;DHT22;7101;51.600;7.310;2023-07-31T04:24:14;16.40;99.90
14053;DHT22;7101;51.600;7.310;2023-07-31T04:26:42;16.40;99.90
14053;DHT22;7101;51.600;7.310;2023-07-31T04:29:09;16.40;99.90
14053;DHT22;7101;51.600;7.310;2023-07-31T04:31:36;16.50;99.90
14053;DHT22;7101;51.600;7.310;2023-07-31T04:34:05;16.50;99.90
14053;DHT22;7101;51.600;7.310;2023-07-31T04:36:32;16.60;99.90
14053;DHT22;7101;51.600;7.310;2023-07-31T04:39:00;16.60;99.90
14053;DHT22;7101;51.600;7.310;2023-07-31T04:41:27;16.70;99.90
14053;DHT22;7101;51.600;7.310;2023-07-31T04:43:55;16.70;99.90
14053;DHT22;7101;51.600;7.310;2023-07-31T04:46:22;16.70;99.90
14053;DHT22;7101;51.600;7.310;2023-07-31T04:48:49;16.70;99.90
14053;DHT22;7101;51.600;7.310;2023-07-31T04:51:17;16.70;99.90
14053;DHT22;7101;51.600;7.310;2023-07-31T04:53:45;16.70;99.90
14053;DHT22;7101;51.600;7.310;2023-07-31T04:56:12;16.80;99.90
14053;DHT22;7101;51.600;7.310;2023-07-31T04:58:39;16.90;99.90
14053;DHT22;7101;51.600;7.310;2023-07-31T05:01:06;16.80;99.90
14053;DHT22;7101;51.600;7.310;2023-07-31T05:03:33;16.80;99.90
14053;DHT22;7101;51.600;7.310;2023-07-31T05:06:00;16.80;99.90
14053;DHT22;7101;51.600;7.310;2023-07-31T05:08:28;16.80;99.90
14053;DHT22;7101;51.600;7.310;2023-07-31T05:10:55;16.70;99.90
14053;DHT22;7101;51.600;7.310;2023-07-31T05:13:22;16.70;99.90
14053;DHT22;7101;51.600;7.310;2023-07-31T05:15:49;16.70;99.90
14053;DHT22;7101;51.600;7.310;2023-07-31T05:18:16;16.80;99.90
14053;DHT22;7101;51.600;7.310;2023-07-31T05:20:43;16.80;99.90
14053;DHT22;7101;51.600;7.310;2023-07-31T05:23:10;16.80;99.90
14053;DHT22;7101;51.600;7.310;2023-07-31T05:25:38;16.80;99.90
14053;DHT22;7101;51.600;7.310;2023-07-31T05:28:05;16.80;99.90
14053;DHT22;7101;51.600;7.310;2023-07-31T05:30:32;16.90;99.90
14053;DHT22;7101;51.600;7.310;2023-07-31T05:33:01;16.90;99.90
14053;DHT22;7101;51.600;7.310;2023-07-31T05:35:28;17.00;99.90
14053;DHT22;7101;51.600;7.310;2023-07-31T05:37:55;17.10;99.90
14053;DHT22;7101;51.600;7.310;2023-07-31T05:40:22;17.20;99.90
14053;DHT22;7101;51.600;7.310;2023-07-31T05:42:50;17.20;99.90
14053;DHT22;7101;51.600;7.310;2023-07-31T05:45:17;17.20;99.90
14053;DHT22;7101;51.600;7.310;2023-07-31T05:47:44;17.20;99.90
14053;DHT22;7101;51.600;7.310;2023-07-31T05:50:12;17.20;99.90
14053;DHT22;7101;51.600;7.310;2023-07-31T05:52:39;17.20;99.90
14053;DHT22;7101;51.600;7.310;2023-07-31T05:55:07;17.20;99.90
14053;DHT22;7101;51.600;7.310;2023-07-31T05:57:34;17.10;99.90
14053;DHT22;7101;51.600;7.310;2023-07-31T06:00:04;17.00;99.90
14053;DHT22;7101;51.600;7.310;2023-07-31T06:02:32;17.00;99.90
14053;DHT22;7101;51.600;7.310;2023-07-31T06:05:02;17.00;99.90
14053;DHT22;7101;51.600;7.310;2023-07-31T06:07:32;16.90;99.90
14053;DHT22;7101;51.600;7.310;2023-07-31T06:10:02;16.90;99.90
14053;DHT22;7101;51.600;7.310;2023-07-31T06:12:31;16.90;99.90
14053;DHT22;7101;51.600;7.310;2023-07-31T06:14:58;16.90;99.90
14053;DHT22;7101;51.600;7.310;2023-07-31T06:17:26;16.90;99.90
14053;DHT22;7101;51.600;7.310;2023-07-31T06:19:53;16.90;99.90
14053;DHT22;7101;51.600;7.310;2023-07-31T06:22:20;16.90;99.90
14053;DHT22;7101;51.600;7.310;2023-07-31T06:24:47;16.80;99.90
14053;DHT22;7101;51.600;7.310;2023-07-31T06:27:14;16.80;99.90
14053;DHT22;7101;51.600;7.310;2023-07-31T06:29:42;16.80;99.90
14053;DHT22;7101;51.600;7.310;2023-07-31T06:32:09;16.90;99.90
14053;DHT22;7101;51.600;7.310;2023-07-31T06:34:37;16.90;99.90
14053;DHT22;7101;51.600;7.310;2023-07-31T06:37:05;16.90;99.90
14053;DHT22;7101;51.600;7.310;2023-07-31T06:39:31;16.80;99.90
14053;DHT22;7101;51.600;7.310;2023-07-31T06:41:58;16.90;99.90
14053;DHT22;7101;51.600;7.310;2023-07-31T06:44:25;16.90;99.90
14053;DHT22;7101;51.600;7.310;2023-07-31T06:46:52;16.90;99.90
14053;DHT22;7101;51.600;7.310;2023-07-31T06:49:19;16.90;99.90
14053;DHT22;7101;51.600;7.310;2023-07-31T06:51:47;16.80;99.90
14053;DHT22;7101;51.600;7.310;2023-07-31T06:54:14;16.90;99.90
14053;DHT22;7101;51.600;7.310;2023-07-31T06:56:41;16.90;99.90
14053;DHT22;7101;51.600;7.310;2023-07-31T06:59:08;17.00;99.90
14053;DHT22;7101;51.600;7.310;2023-07-31T07:01:35;17.00;99.90
14053;DHT22;7101;51.600;7.310;2023-07-31T07:04:02;17.00;99.90
14053;DHT22;7101;51.600;7.310;2023-07-31T07:06:29;17.00;99.90
14053;DHT22;7101;51.600;7.310;2023-07-31T07:08:59;17.10;99.90
14053;DHT22;7101;51.600;7.310;2023-07-31T07:11:26;17.20;99.90
14053;DHT22;7101;51.600;7.310;2023-07-31T07:13:53;17.20;99.90
14053;DHT22;7101;51.600;7.310;2023-07-31T07:16:20;17.20;99.90
14053;DHT22;7101;51.600;7.310;2023-07-31T07:18:47;17.20;99.90
14053;DHT22;7101;51.600;7.310;2023-07-31T07:21:17;17.20;99.90
14053;DHT22;7101;51.600;7.310;2023-07-31T07:23:44;17.30;99.90
14053;DHT22;7101;51.600;7.310;2023-07-31T07:26:13;17.30;99.90
14053;DHT22;7101;51.600;7.310;2023-07-31T07:28:40;17.30;99.90
14053;DHT22;7101;51.600;7.310;2023-07-31T07:31:07;17.40;99.90
14053;DHT22;7101;51.600;7.310;2023-07-31T07:33:33;17.40;99.90
14053;DHT22;7101;51.600;7.310;2023-07-31T07:36:01;17.30;99.90
14053;DHT22;7101;51.600;7.310;2023-07-31T07:38:29;17.30;99.90
14053;DHT22;7101;51.600;7.310;2023-07-31T07:40:56;17.30;99.90
14053;DHT22;7101;51.600;7.310;2023-07-31T07:43:24;17.30;99.90
14053;DHT22;7101;51.600;7.310;2023-07-31T07:45:51;17.20;99.90
14053;DHT22;7101;51.600;7.310;2023-07-31T07:48:18;17.20;99.90
14053;DHT22;7101;51.600;7.310;2023-07-31T07:50:46;17.30;99.90
14053;DHT22;7101;51.600;7.310;2023-07-31T07:53:13;17.30;99.90
14053;DHT22;7101;51.600;7.310;2023-07-31T07:55:40;17.30;99.90
14053;DHT22;7101;51.600;7.310;2023-07-31T07:58:08;17.30;99.90
14053;DHT22;7101;51.600;7.310;2023-07-31T08:00:36;17.30;99.90
14053;DHT22;7101;51.600;7.310;2023-07-31T08:03:03;17.30;99.90
14053;DHT22;7101;51.600;7.310;2023-07-31T08:05:30;17.20;99.90
14053;DHT22;7101;51.600;7.310;2023-07-31T08:07:59;17.20;99.90
14053;DHT22;7101;51.600;7.310;2023-07-31T08:10:26;17.20;99.90
14053;DHT22;7101;51.600;7.310;2023-07-31T08:12:53;17.20;99.90
14053;DHT22;7101;51.600;7.310;2023-07-31T08:15:20;17.30;99.90
14053;DHT22;7101;51.600;7.310;2023-07-31T08:17:49;17.50;99.90
14053;DHT22;7101;51.600;7.310;2023-07-31T08:20:15;17.70;99.90
14053;DHT22;7101;51.600;7.310;2023-07-31T08:22:43;17.70;99.90
14053;DHT22;7101;51.600;7.310;2023-07-31T08:25:11;17.70;99.90
14053;DHT22;7101;51.600;7.310;2023-07-31T08:27:37;17.60;99.90
14053;DHT22;7101;51.600;7.310;2023-07-31T08:30:06;17.70;99.90
14053;DHT22;7101;51.600;7.310;2023-07-31T08:32:33;17.70;99.90
14053;DHT22;7101;51.600;7.310;2023-07-31T08:35:02;17.70;99.90
14053;DHT22;7101;51.600;7.310;2023-07-31T08:37:30;17.80;99.90
14053;DHT22;7101;51.600;7.310;2023-07-31T08:39:57;17.90;99.90
14053;DHT22;7101;51.600;7.310;2023-07-31T08:42:25;17.90;99.90
14053;DHT22;7101;51.600;7.310;2023-07-31T08:44:52;17.90;99.90
14053;DHT22;7101;51.600;7.310;2023-07-31T08:47:20;17.90;99.90
14053;DHT22;7101;51.600;7.310;2023-07-31T08:49:49;17.90;99.90
14053;DHT22;7101;51.600;7.310;2023-07-31T08:52:19;17.90;99.90
14053;DHT22;7101;51.600;7.310;2023-07-31T08:54:45;17.70;99.90
14053;DHT22;7101;51.600;7.310;2023-07-31T08:57:14;17.70;99.90
14053;DHT22;7101;51.600;7.310;2023-07-31T08:59:43;17.80;99.90
14053;DHT22;7101;51.600;7.310;2023-07-31T09:02:11;17.80;99.90
14053;DHT22;7101;51.600;7.310;2023-07-31T09:04:40;17.60;99.90
14053;DHT22;7101;51.600;7.310;2023-07-31T09:07:07;17.50;99.90
14053;DHT22;7101;51.600;7.310;2023-07-31T09:09:36;17.50;99.90
14053;DHT22;7101;51.600;7.310;2023-07-31T09:12:04;17.60;99.90
14053;DHT22;7101;51.600;7.310;2023-07-31T09:14:32;17.50;99.90
14053;DHT22;7101;51.600;7.310;2023-07-31T09:17:00;17.60;99.90
14053;DHT22;7101;51.600;7.310;2023-07-31T09:19:29;17.70;99.90
14053;DHT22;7101;51.600;7.310;2023-07-31T09:21:56;17.60;99.90
14053;DHT22;7101;51.600;7.310;2023-07-31T09:24:27;17.70;99.90
14053;DHT22;7101;51.600;7.310;2023-07-31T09:26:56;17.70;99.90
14053;DHT22;7101;51.600;7.310;2023-07-31T09:29:24;17.60;99.90
14053;DHT22;7101;51.600;7.310;2023-07-31T09:31:52;17.50;99.90
14053;DHT22;7101;51.600;7.310;2023-07-31T09:34:20;17.50;99.90
14053;DHT22;7101;51.600;7.310;2023-07-31T09:36:49;17.50;99.90
14053;DHT22;7101;51.600;7.310;2023-07-31T09:39:19;17.50;99.90
14053;DHT22;7101;51.600;7.310;2023-07-31T09:41:53;17.60;99.90
14053;DHT22;7101;51.600;7.310;2023-07-31T09:44:37;17.50;99.90
14053;DHT22;7101;51.600;7.310;2023-07-31T09:47:21;17.50;99.90
14053;DHT22;7101;51.600;7.310;2023-07-31T09:49:49;17.60;99.90
14053;DHT22;7101;51.600;7.310;2023-07-31T09:52:19;17.50;99.90
14053;DHT22;7101;51.600;7.310;2023-07-31T09:54:45;17.60;99.90
14053;DHT22;7101;51.600;7.310;2023-07-31T09:57:13;17.60;99.90
14053;DHT22;7101;51.600;7.310;2023-07-31T09:59:47;17.80;99.90
14053;DHT22;7101;51.600;7.310;2023-07-31T10:02:20;18.00;99.90
14053;DHT22;7101;51.600;7.310;2023-07-31T10:04:49;18.00;99.90
14053;DHT22;7101;51.600;7.310;2023-07-31T10:07:18;18.10;99.90
14053;DHT22;7101;51.600;7.310;2023-07-31T10:09:49;18.20;99.90
14053;DHT22;7101;51.600;7.310;2023-07-31T10:12:19;18.20;99.90
14053;DHT22;7101;51.600;7.310;2023-07-31T10:14:51;18.20;99.90
14053;DHT22;7101;51.600;7.310;2023-07-31T10:17:20;18.30;99.90
14053;DHT22;7101;51.600;7.310;2023-07-31T10:19:48;18.30;99.90
14053;DHT22;7101;51.600;7.310;2023-07-31T10:22:16;18.40;99.90
14053;DHT22;7101;51.600;7.310;2023-07-31T10:24:45;18.40;99.90
14053;DHT22;7101;51.600;7.310;2023-07-31T10:27:12;18.50;99.90
14053;DHT22;7101;51.600;7.310;2023-07-31T10:29:41;18.40;99.90
14053;DHT22;7101;51.600;7.310;2023-07-31T10:32:11;18.30;99.90
14053;DHT22;7101;51.600;7.310;2023-07-31T10:34:39;18.30;99.90
14053;DHT22;7101;51.600;7.310;2023-07-31T10:37:29;18.40;99.90
14053;DHT22;7101;51.600;7.310;2023-07-31T10:40:00;18.40;99.90
14053;DHT22;7101;51.600;7.310;2023-07-31T10:42:31;18.40;99.90
14053;DHT22;7101;51.600;7.310;2023-07-31T10:45:01;18.70;99.90
14053;DHT22;7101;51.600;7.310;2023-07-31T10:47:29;18.80;99.90
14053;DHT22;7101;51.600;7.310;2023-07-31T10:50:21;18.80;99.90
14053;DHT22;7101;51.600;7.310;2023-07-31T10:52:51;18.90;99.90
14053;DHT22;7101;51.600;7.310;2023-07-31T10:55:32;18.80;99.90
14053;DHT22;7101;51.600;7.310;2023-07-31T10:58:05;18.60;99.90
14053;DHT22;7101;51.600;7.310;2023-07-31T11:00:33;18.50;99.90
14053;DHT22;7101;51.600;7.310;2023-07-31T11:03:03;18.30;99.90
14053;DHT22;7101;51.600;7.310;2023-07-31T11:05:51;18.10;99.90
14053;DHT22;7101;51.600;7.310;2023-07-31T11:08:21;18.10;99.90
14053;DHT22;7101;51.600;7.310;2023-07-31T11:10:50;18.10;99.90
14053;DHT22;7101;51.600;7.310;2023-07-31T11:13:18;18.10;99.90
14053;DHT22;7101;51.600;7.310;2023-07-31T11:15:47;18.30;99.90
14053;DHT22;7101;51.600;7.310;2023-07-31T11:18:15;18.30;99.90
14053;DHT22;7101;51.600;7.310;2023-07-31T11:20:42;18.20;99.90
14053;DHT22;7101;51.600;7.310;2023-07-31T11:23:10;18.30;99.90
14053;DHT22;7101;51.600;7.310;2023-07-31T11:25:38;18.30;99.90
14053;DHT22;7101;51.600;7.310;2023-07-31T11:28:08;18.30;99.90
14053;DHT22;7101;51.600;7.310;2023-07-31T11:30:36;18.40;99.90
14053;DHT22;7101;51.600;7.310;2023-07-31T11:33:06;18.50;99.90
14053;DHT22;7101;51.600;7.310;2023-07-31T11:35:36;18.80;99.90
14053;DHT22;7101;51.600;7.310;2023-07-31T11:38:03;18.80;99.90
14053;DHT22;7101;51.600;7.310;2023-07-31T11:40:30;18.80;99.90
14053;DHT22;7101;51.600;7.310;2023-07-31T11:42:57;18.70;99.90
14053;DHT22;7101;51.600;7.310;2023-07-31T11:45:26;18.80;99.90
14053;DHT22;7101;51.600;7.310;2023-07-31T11:47:55;18.70;99.90
14053;DHT22;7101;51.600;7.310;2023-07-31T11:50:23;18.80;99.90
14053;DHT22;7101;51.600;7.310;2023-07-31T11:52:56;19.00;99.90
14053;DHT22;7101;51.600;7.310;2023-07-31T11:55:24;19.10;99.90
14053;DHT22;7101;51.600;7.310;2023-07-31T11:57:52;19.00;99.90
14053;DHT22;7101;51.600;7.310;2023-07-31T12:00:22;19.10;99.90
14053;DHT22;7101;51.600;7.310;2023-07-31T12:02:51;19.10;99.90
14053;DHT22;7101;51.600;7.310;2023-07-31T12:05:18;19.00;99.90
14053;DHT22;7101;51.600;7.310;2023-07-31T12:07:46;19.20;99.90
14053;DHT22;7101;51.600;7.310;2023-07-31T12:10:30;19.30;99.90
14053;DHT22;7101;51.600;7.310;2023-07-31T12:13:00;19.50;99.90
14053;DHT22;7101;51.600;7.310;2023-07-31T12:15:36;19.50;99.90
14053;DHT22;7101;51.600;7.310;2023-07-31T12:18:08;19.60;99.90
14053;DHT22;7101;51.600;7.310;2023-07-31T12:20:35;19.80;99.90
14053;DHT22;7101;51.600;7.310;2023-07-31T12:23:08;20.10;99.90
14053;DHT22;7101;51.600;7.310;2023-07-31T12:25:41;20.20;99.90
14053;DHT22;7101;51.600;7.310;2023-07-31T12:28:08;20.00;99.90
14053;DHT22;7101;51.600;7.310;2023-07-31T12:30:38;20.00;99.90
14053;DHT22;7101;51.600;7.310;2023-07-31T12:33:06;20.10;99.90
14053;DHT22;7101;51.600;7.310;2023-07-31T12:35:38;20.00;99.90
14053;DHT22;7101;51.600;7.310;2023-07-31T12:38:07;19.90;99.90
14053;DHT22;7101;51.600;7.310;2023-07-31T12:40:37;19.60;99.90
14053;DHT22;7101;51.600;7.310;2023-07-31T12:43:06;19.70;99.90
14053;DHT22;7101;51.600;7.310;2023-07-31T12:45:33;19.70;99.90
14053;DHT22;7101;51.600;7.310;2023-07-31T12:48:01;19.50;99.90
14053;DHT22;7101;51.600;7.310;2023-07-31T12:50:28;19.30;99.90
14053;DHT22;7101;51.600;7.310;2023-07-31T12:52:55;19.20;99.90
14053;DHT22;7101;51.600;7.310;2023-07-31T12:55:22;19.30;99.90
14053;DHT22;7101;51.600;7.310;2023-07-31T12:57:49;19.30;99.90
14053;DHT22;7101;51.600;7.310;2023-07-31T13:00:19;19.20;99.90
14053;DHT22;7101;51.600;7.310;2023-07-31T13:02:46;19.20;99.90
14053;DHT22;7101;51.600;7.310;2023-07-31T13:05:14;19.10;99.90
14053;DHT22;7101;51.600;7.310;2023-07-31T13:07:41;19.10;99.90
14053;DHT22;7101;51.600;7.310;2023-07-31T13:10:08;19.30;99.90
14053;DHT22;7101;51.600;7.310;2023-07-31T13:12:35;19.40;99.90
14053;DHT22;7101;51.600;7.310;2023-07-31T13:15:03;19.50;99.90
14053;DHT22;7101;51.600;7.310;2023-07-31T13:17:31;19.70;99.90
14053;DHT22;7101;51.600;7.310;2023-07-31T13:19:58;19.80;99.90
14053;DHT22;7101;51.600;7.310;2023-07-31T13:22:26;20.20;99.90
14053;DHT22;7101;51.600;7.310;2023-07-31T13:24:52;20.40;99.90
14053;DHT22;7101;51.600;7.310;2023-07-31T13:27:19;20.60;99.90
14053;DHT22;7101;51.600;7.310;2023-07-31T13:29:47;20.70;99.90
14053;DHT22;7101;51.600;7.310;2023-07-31T13:32:16;20.70;99.90
14053;DHT22;7101;51.600;7.310;2023-07-31T13:34:45;20.60;99.90
14053;DHT22;7101;51.600;7.310;2023-07-31T13:37:13;20.60;99.90
14053;DHT22;7101;51.600;7.310;2023-07-31T13:39:41;20.30;99.90
14053;DHT22;7101;51.600;7.310;2023-07-31T13:42:08;20.00;99.90
14053;DHT22;7101;51.600;7.310;2023-07-31T13:44:38;20.00;99.90
14053;DHT22;7101;51.600;7.310;2023-07-31T13:47:05;20.10;99.90
14053;DHT22;7101;51.600;7.310;2023-07-31T13:49:34;20.10;99.90
14053;DHT22;7101;51.600;7.310;2023-07-31T13:52:04;20.10;99.90
14053;DHT22;7101;51.600;7.310;2023-07-31T13:54:31;20.10;99.90
14053;DHT22;7101;51.600;7.310;2023-07-31T13:57:00;20.00;99.90
14053;DHT22;7101;51.600;7.310;2023-07-31T13:59:27;19.90;99.90
14053;DHT22;7101;51.600;7.310;2023-07-31T14:01:55;20.00;99.90
14053;DHT22;7101;51.600;7.310;2023-07-31T14:04:22;20.10;99.90
14053;DHT22;7101;51.600;7.310;2023-07-31T14:06:49;19.90;99.90
14053;DHT22;7101;51.600;7.310;2023-07-31T14:09:18;19.90;99.90
14053;DHT22;7101;51.600;7.310;2023-07-31T14:11:45;19.90;99.90
14053;DHT22;7101;51.600;7.310;2023-07-31T14:14:12;19.90;99.90
14053;DHT22;7101;51.600;7.310;2023-07-31T14:16:39;20.20;99.90
14053;DHT22;7101;51.600;7.310;2023-07-31T14:19:06;20.50;99.90
14053;DHT22;7101;51.600;7.310;2023-07-31T14:21:34;20.80;99.90
14053;DHT22;7101;51.600;7.310;2023-07-31T14:24:02;21.00;99.90
14053;DHT22;7101;51.600;7.310;2023-07-31T14:26:30;21.00;99.90
14053;DHT22;7101;51.600;7.310;2023-07-31T14:28:57;20.90;99.90
14053;DHT22;7101;51.600;7.310;2023-07-31T14:31:26;20.80;99.90
14053;DHT22;7101;51.600;7.310;2023-07-31T14:33:53;20.70;99.90
14053;DHT22;7101;51.600;7.310;2023-07-31T14:36:20;20.50;99.90
14053;DHT22;7101;51.600;7.310;2023-07-31T14:38:47;20.50;99.90
14053;DHT22;7101;51.600;7.310;2023-07-31T14:41:14;20.60;99.90
14053;DHT22;7101;51.600;7.310;2023-07-31T14:43:42;20.50;99.90
14053;DHT22;7101;51.600;7.310;2023-07-31T14:46:10;20.60;99.90
14053;DHT22;7101;51.600;7.310;2023-07-31T14:48:37;20.50;99.90
14053;DHT22;7101;51.600;7.310;2023-07-31T14:51:04;20.60;99.90
14053;DHT22;7101;51.600;7.310;2023-07-31T14:53:31;20.50;99.90
14053;DHT22;7101;51.600;7.310;2023-07-31T14:55:58;20.50;99.90
14053;DHT22;7101;51.600;7.310;2023-07-31T14:58:25;20.40;99.90
14053;DHT22;7101;51.600;7.310;2023-07-31T15:00:53;20.30;99.90
14053;DHT22;7101;51.600;7.310;2023-07-31T15:03:20;20.10;99.90
14053;DHT22;7101;51.600;7.310;2023-07-31T15:05:47;20.00;99.90
14053;DHT22;7101;51.600;7.310;2023-07-31T15:08:14;20.00;99.90
14053;DHT22;7101;51.600;7.310;2023-07-31T15:10:41;20.00;99.90
14053;DHT22;7101;51.600;7.310;2023-07-31T15:13:07;19.80;99.90
14053;DHT22;7101;51.600;7.310;2023-07-31T15:15:35;19.80;99.90
14053;DHT22;7101;51.600;7.310;2023-07-31T15:18:04;19.80;99.90
14053;DHT22;7101;51.600;7.310;2023-07-31T15:20:30;19.70;99.90
14053;DHT22;7101;51.600;7.310;2023-07-31T15:22:58;19.60;99.90
14053;DHT22;7101;51.600;7.310;2023-07-31T15:25:25;19.60;99.90
14053;DHT22;7101;51.600;7.310;2023-07-31T15:27:52;19.60;99.90
14053;DHT22;7101;51.600;7.310;2023-07-31T15:30:19;19.50;99.90
14053;DHT22;7101;51.600;7.310;2023-07-31T15:32:46;19.60;99.90
14053;DHT22;7101;51.600;7.310;2023-07-31T15:35:18;19.50;99.90
14053;DHT22;7101;51.600;7.310;2023-07-31T15:37:45;19.50;99.90
14053;DHT22;7101;51.600;7.310;2023-07-31T15:40:12;19.50;99.90
14053;DHT22;7101;51.600;7.310;2023-07-31T15:42:39;19.50;99.90
14053;DHT22;7101;51.600;7.310;2023-07-31T15:45:10;19.30;99.90
14053;DHT22;7101;51.600;7.310;2023-07-31T15:47:37;19.30;99.90
14053;DHT22;7101;51.600;7.310;2023-07-31T15:50:05;19.30;99.90
14053;DHT22;7101;51.600;7.310;2023-07-31T15:52:34;19.30;99.90